Terminal Aerodrome Forecast
Issued by NWS Twin Cities, MN

Home | Current Version | Previous Version | Graphics & Text | Print | Product List | Glossary On
Versions: 1 2 3 4 5 6 7 8 9 10 11 12 13
000
FTUS43 KMPX 270522
TAFSTC
TAF
KSTC 270522Z 2706/2806 VRB02KT P6SM BKN035 OVC080
      TEMPO 2710/2713 4SM BR
     FM271500 03003KT P6SM BKN050 OVC100
     FM272000 02006KT P6SM BKN250
     FM280000 06003KT P6SM SKC=

USA.gov is the U.S. government's official web portal to all federal, state and local government web resources and services.